Time;durP1;ratioP1;P1;durP2;ratioP2;P2;SDS_P1;SDS_P2;PMS_P1;PMS_P2;Temp;Humidity;BMP_temperature;BMP_pressure;BME280_temperature;BME280_humidity;BME280_pressure;Samples;Min_cycle;Max_cycle;Signal;HPM_P1;HPM_P2
2023/10/04 00:00:45;;;;;;;9.13;3.70;;;;;;;;;;4999122;28;20176;-72
2023/10/04 00:03:11;;;;;;;9.57;3.90;;;;;;;;;;5015787;28;20179;-72
2023/10/04 00:05:37;;;;;;;11.00;4.00;;;;;;;;;;4998183;28;20192;-72
2023/10/04 00:08:03;;;;;;;10.50;3.37;;;;;;;;;;5015742;28;20226;-72
2023/10/04 00:10:30;;;;;;;8.07;3.70;;;;;;;;;;4998226;28;20651;-72
2023/10/04 00:12:55;;;;;;;9.77;3.80;;;;;;;;;;4997942;28;20187;-71
2023/10/04 00:15:25;;;;;;;8.67;3.53;;;;;;;;;;5015644;28;20203;-71
2023/10/04 00:17:52;;;;;;;9.13;3.57;;;;;;;;;;4997907;28;20638;-71
2023/10/04 00:20:19;;;;;;;10.80;3.70;;;;;;;;;;5015611;28;20242;-71
2023/10/04 00:22:46;;;;;;;10.50;4.37;;;;;;;;;;4997748;28;20190;-71
2023/10/04 00:25:20;;;;;;;9.07;3.73;;;;;;;;;;5015515;28;20226;-71
2023/10/04 00:27:46;;;;;;;11.33;4.07;;;;;;;;;;5015382;28;20279;-71
2023/10/04 00:30:14;;;;;;;9.00;3.40;;;;;;;;;;4997695;28;20179;-71
2023/10/04 00:32:40;;;;;;;12.23;3.60;;;;;;;;;;4997445;28;20323;-71
2023/10/04 00:35:11;;;;;;;13.53;3.90;;;;;;;;;;5015056;28;20182;-71
2023/10/04 00:37:38;;;;;;;11.93;3.80;;;;;;;;;;4997680;28;20200;-71
2023/10/04 00:40:12;;;;;;;13.17;4.03;;;;;;;;;;4997478;28;20186;-71
2023/10/04 00:42:38;;;;;;;15.37;3.90;;;;;;;;;;4997550;28;20297;-71
2023/10/04 00:45:05;;;;;;;12.50;3.60;;;;;;;;;;4997853;28;20267;-71
2023/10/04 00:47:32;;;;;;;9.70;3.30;;;;;;;;;;5015207;28;20226;-71
2023/10/04 00:50:01;;;;;;;9.37;3.53;;;;;;;;;;5015003;28;20665;-71
2023/10/04 00:52:27;;;;;;;11.63;3.90;;;;;;;;;;4995996;28;20755;-71
2023/10/04 00:54:54;;;;;;;10.13;3.60;;;;;;;;;;5013605;28;20871;-71
2023/10/04 00:57:20;;;;;;;12.30;3.87;;;;;;;;;;5014927;28;20203;-71
2023/10/04 00:59:46;;;;;;;9.77;4.03;;;;;;;;;;4997089;28;20172;-71
2023/10/04 01:02:13;;;;;;;6.77;3.40;;;;;;;;;;4997112;28;20652;-71
2023/10/04 01:04:39;;;;;;;11.37;3.77;;;;;;;;;;5014849;28;20176;-71
2023/10/04 01:07:06;;;;;;;6.10;3.63;;;;;;;;;;4997134;28;20184;-71
2023/10/04 01:09:32;;;;;;;10.13;4.20;;;;;;;;;;4997050;28;20226;-71
2023/10/04 01:11:58;;;;;;;11.10;3.40;;;;;;;;;;4996831;28;20216;-71
2023/10/04 01:14:26;;;;;;;8.20;3.33;;;;;;;;;;4996847;28;20615;-71
2023/10/04 01:16:53;;;;;;;13.00;3.97;;;;;;;;;;5014512;28;20313;-72
2023/10/04 01:19:22;;;;;;;11.70;4.23;;;;;;;;;;4996785;28;20199;-71
2023/10/04 01:21:48;;;;;;;11.57;3.23;;;;;;;;;;5014390;28;20211;-71
2023/10/04 01:24:14;;;;;;;7.50;3.20;;;;;;;;;;4996787;28;20330;-71
2023/10/04 01:26:41;;;;;;;10.10;3.40;;;;;;;;;;4996496;28;20194;-71
2023/10/04 01:29:11;;;;;;;13.73;3.83;;;;;;;;;;4996533;28;20200;-71
2023/10/04 01:31:37;;;;;;;11.23;3.73;;;;;;;;;;5014420;28;20179;-71
2023/10/04 01:34:03;;;;;;;11.80;3.80;;;;;;;;;;4997284;28;20194;-71
2023/10/04 01:36:34;;;;;;;13.03;3.77;;;;;;;;;;5017201;28;20215;-71
2023/10/04 01:39:02;;;;;;;13.53;4.10;;;;;;;;;;5021853;28;20200;-71
2023/10/04 01:41:28;;;;;;;9.97;3.70;;;;;;;;;;5022756;28;20172;-71
2023/10/04 01:44:00;;;;;;;12.67;4.07;;;;;;;;;;4997486;28;20182;-71
2023/10/04 01:46:27;;;;;;;12.37;4.00;;;;;;;;;;5014817;28;20247;-71
2023/10/04 01:48:56;;;;;;;13.90;4.20;;;;;;;;;;4996761;28;20757;-71
2023/10/04 01:51:26;;;;;;;11.30;4.07;;;;;;;;;;5014902;28;20694;-71
2023/10/04 01:53:53;;;;;;;11.20;3.73;;;;;;;;;;4996137;28;20696;-71
2023/10/04 01:56:19;;;;;;;14.33;4.20;;;;;;;;;;5013771;28;20206;-71
2023/10/04 01:58:48;;;;;;;8.47;3.80;;;;;;;;;;4996247;28;20214;-71
2023/10/04 02:01:14;;;;;;;13.20;4.17;;;;;;;;;;5014129;28;20263;-71
2023/10/04 02:03:40;;;;;;;12.83;3.90;;;;;;;;;;5013226;28;20183;-71
2023/10/04 02:06:08;;;;;;;9.50;4.23;;;;;;;;;;5014264;28;20558;-71
2023/10/04 02:08:34;;;;;;;11.20;4.30;;;;;;;;;;4996109;28;20214;-71
2023/10/04 02:11:00;;;;;;;8.23;3.60;;;;;;;;;;4995941;28;20188;-71
2023/10/04 02:13:27;;;;;;;11.97;3.97;;;;;;;;;;4996157;28;20283;-71
2023/10/04 02:15:54;;;;;;;15.23;3.80;;;;;;;;;;4996206;28;20244;-72
2023/10/04 02:18:21;;;;;;;10.27;3.87;;;;;;;;;;5013591;28;20347;-72
2023/10/04 02:20:48;;;;;;;11.53;3.83;;;;;;;;;;5013733;28;20656;-71
2023/10/04 02:23:21;;;;;;;11.77;4.60;;;;;;;;;;4995995;28;20654;-71
2023/10/04 02:25:48;;;;;;;12.30;3.63;;;;;;;;;;4995928;28;20195;-71
2023/10/04 02:28:25;;;;;;;7.53;3.67;;;;;;;;;;5013452;28;20206;-71
2023/10/04 02:30:54;;;;;;;10.87;3.90;;;;;;;;;;5013758;28;20164;-71
2023/10/04 02:33:20;;;;;;;10.63;3.47;;;;;;;;;;4995979;28;20237;-70
2023/10/04 02:35:48;;;;;;;11.03;3.77;;;;;;;;;;4995550;28;20207;-70
2023/10/04 02:38:26;;;;;;;14.40;3.77;;;;;;;;;;5013834;28;20550;-71
2023/10/04 02:40:52;;;;;;;8.53;3.60;;;;;;;;;;4981137;28;20569;-71
2023/10/04 02:43:20;;;;;;;8.87;3.83;;;;;;;;;;4995428;28;20176;-71
2023/10/04 02:45:47;;;;;;;14.17;4.03;;;;;;;;;;5013388;28;20266;-71
2023/10/04 02:48:13;;;;;;;11.77;3.60;;;;;;;;;;5013123;28;20258;-71
2023/10/04 02:50:41;;;;;;;15.03;3.60;;;;;;;;;;5013484;28;20560;-71
2023/10/04 02:53:09;;;;;;;10.03;3.43;;;;;;;;;;4995735;28;20676;-70
2023/10/04 02:55:36;;;;;;;13.60;3.83;;;;;;;;;;5013102;28;20200;-69
2023/10/04 02:58:05;;;;;;;11.77;3.40;;;;;;;;;;4995734;28;20231;-70
2023/10/04 03:00:31;;;;;;;10.67;3.60;;;;;;;;;;5013535;28;20630;-70
2023/10/04 03:02:57;;;;;;;9.50;3.37;;;;;;;;;;5013561;28;20195;-70
2023/10/04 03:05:24;;;;;;;12.30;3.63;;;;;;;;;;4996153;28;20643;-70
2023/10/04 03:07:50;;;;;;;14.27;3.83;;;;;;;;;;4996060;28;20204;-70
2023/10/04 03:10:24;;;;;;;17.97;4.10;;;;;;;;;;5013327;28;20660;-70
2023/10/04 03:12:53;;;;;;;8.07;3.20;;;;;;;;;;5012910;28;20222;-70
2023/10/04 03:15:23;;;;;;;13.37;4.00;;;;;;;;;;4998339;28;20186;-71
2023/10/04 03:17:53;;;;;;;10.03;4.00;;;;;;;;;;4998915;28;20260;-70
2023/10/04 03:20:20;;;;;;;12.67;3.77;;;;;;;;;;5016453;28;20183;-70
2023/10/04 03:22:50;;;;;;;12.60;3.97;;;;;;;;;;4998831;28;20206;-70
2023/10/04 03:25:16;;;;;;;13.40;3.83;;;;;;;;;;5016303;28;20555;-70
2023/10/04 03:27:46;;;;;;;13.47;4.23;;;;;;;;;;5016405;28;20198;-70
2023/10/04 03:30:15;;;;;;;13.93;3.67;;;;;;;;;;4998544;28;20207;-69
2023/10/04 03:32:56;;;;;;;14.47;4.40;;;;;;;;;;5016146;28;20180;-70
2023/10/04 03:35:22;;;;;;;14.53;3.57;;;;;;;;;;5016253;28;20599;-71
2023/10/04 03:37:58;;;;;;;10.47;3.70;;;;;;;;;;5015906;28;20195;-70
2023/10/04 03:40:38;;;;;;;9.53;3.53;;;;;;;;;;5015999;28;20195;-70
2023/10/04 03:43:05;;;;;;;10.60;3.60;;;;;;;;;;4998448;28;20172;-70
2023/10/04 03:45:32;;;;;;;15.00;3.40;;;;;;;;;;5015985;28;20674;-70
2023/10/04 03:47:58;;;;;;;13.20;3.77;;;;;;;;;;5016990;28;20200;-70
2023/10/04 03:50:25;;;;;;;11.67;3.37;;;;;;;;;;5016599;28;20176;-70
2023/10/04 03:52:52;;;;;;;13.53;4.20;;;;;;;;;;5016434;28;20180;-70
2023/10/04 03:55:18;;;;;;;12.33;3.97;;;;;;;;;;5016471;28;20187;-70
2023/10/04 03:57:44;;;;;;;10.83;3.70;;;;;;;;;;4998077;28;20318;-69
2023/10/04 04:00:11;;;;;;;14.77;3.73;;;;;;;;;;5015815;28;20187;-70
2023/10/04 04:02:38;;;;;;;8.43;3.27;;;;;;;;;;4998254;28;20202;-70
2023/10/04 04:05:23;;;;;;;11.20;3.63;;;;;;;;;;4998060;28;20672;-69
2023/10/04 04:07:48;;;;;;;16.80;3.97;;;;;;;;;;5015542;28;20191;-70
2023/10/04 04:10:16;;;;;;;16.33;4.00;;;;;;;;;;5015675;28;20186;-70
2023/10/04 04:12:42;;;;;;;8.50;3.57;;;;;;;;;;5015576;28;20634;-70
2023/10/04 04:15:09;;;;;;;10.57;3.70;;;;;;;;;;5014335;28;20381;-70
2023/10/04 04:17:35;;;;;;;14.27;4.47;;;;;;;;;;4996585;28;20385;-71
2023/10/04 04:20:07;;;;;;;16.42;4.50;;;;;;;;;;5014152;28;20829;-69
2023/10/04 04:22:34;;;;;;;11.57;4.50;;;;;;;;;;4996485;28;20404;-70
2023/10/04 04:25:00;;;;;;;15.20;4.15;;;;;;;;;;5013932;28;20432;-70
2023/10/04 04:27:27;;;;;;;13.40;4.03;;;;;;;;;;5013388;28;20389;-70
2023/10/04 04:29:53;;;;;;;14.55;4.22;;;;;;;;;;5013851;28;20439;-70
2023/10/04 04:32:26;;;;;;;14.63;4.47;;;;;;;;;;4996305;28;20427;-70
2023/10/04 04:34:56;;;;;;;14.90;4.10;;;;;;;;;;5015005;28;20675;-69
2023/10/04 04:37:26;;;;;;;12.00;3.60;;;;;;;;;;5014848;28;20267;-69
2023/10/04 04:39:52;;;;;;;15.30;3.60;;;;;;;;;;4997444;28;20180;-69
2023/10/04 04:42:23;;;;;;;12.87;3.63;;;;;;;;;;5014699;28;20549;-70
2023/10/04 04:44:49;;;;;;;13.10;3.60;;;;;;;;;;4997347;28;20168;-70
2023/10/04 04:47:17;;;;;;;18.07;4.20;;;;;;;;;;5014502;28;20187;-70
2023/10/04 04:49:43;;;;;;;15.03;4.50;;;;;;;;;;4997654;28;20191;-69
2023/10/04 04:52:09;;;;;;;11.57;4.00;;;;;;;;;;4997041;28;20187;-69
2023/10/04 04:54:36;;;;;;;12.87;4.23;;;;;;;;;;5014556;28;20172;-69
2023/10/04 04:57:04;;;;;;;12.40;4.43;;;;;;;;;;5014689;28;20350;-69
2023/10/04 04:59:31;;;;;;;12.20;4.20;;;;;;;;;;5014177;28;20286;-69
2023/10/04 05:01:57;;;;;;;13.70;4.60;;;;;;;;;;4996763;28;20266;-70
2023/10/04 05:04:23;;;;;;;19.40;4.73;;;;;;;;;;5014817;28;20265;-70
2023/10/04 05:06:51;;;;;;;14.97;4.30;;;;;;;;;;5014396;28;20250;-69
2023/10/04 05:09:17;;;;;;;14.93;4.27;;;;;;;;;;5014117;28;20203;-69
2023/10/04 05:11:44;;;;;;;12.70;3.60;;;;;;;;;;5014130;28;20208;-69
2023/10/04 05:14:10;;;;;;;;;;;;;;;;;;4996745;28;20499;-69
2023/10/04 05:16:36;;;;;;;15.47;4.37;;;;;;;;;;5014647;28;20068;-70
2023/10/04 05:19:10;;;;;;;13.37;4.30;;;;;;;;;;5014185;28;20242;-69
2023/10/04 05:21:36;;;;;;;14.17;3.90;;;;;;;;;;5014212;28;20156;-69
2023/10/04 05:24:03;;;;;;;16.93;4.60;;;;;;;;;;5014009;28;20176;-70
2023/10/04 05:26:29;;;;;;;14.10;4.50;;;;;;;;;;5014189;28;20176;-70
2023/10/04 05:28:55;;;;;;;15.17;4.97;;;;;;;;;;5013924;28;20753;-69
2023/10/04 05:31:22;;;;;;;17.37;4.23;;;;;;;;;;5014013;28;20168;-69
2023/10/04 05:33:48;;;;;;;17.07;4.60;;;;;;;;;;5013897;28;20251;-69
2023/10/04 05:36:14;;;;;;;15.17;4.13;;;;;;;;;;4996016;28;20639;-69
2023/10/04 05:38:40;;;;;;;13.33;4.50;;;;;;;;;;4996063;28;20207;-70
2023/10/04 05:41:06;;;;;;;15.23;4.27;;;;;;;;;;4996209;28;20180;-69
2023/10/04 05:43:34;;;;;;;23.87;5.10;;;;;;;;;;4996117;28;20180;-69
2023/10/04 05:46:00;;;;;;;14.40;5.13;;;;;;;;;;5013955;28;20186;-69
2023/10/04 05:48:26;;;;;;;14.57;4.53;;;;;;;;;;5014115;28;20200;-70
2023/10/04 05:50:54;;;;;;;22.17;4.80;;;;;;;;;;4995998;28;20194;-69
2023/10/04 05:53:21;;;;;;;21.73;5.00;;;;;;;;;;5013570;28;20575;-69
2023/10/04 05:55:48;;;;;;;16.30;4.63;;;;;;;;;;5013771;28;20221;-69
2023/10/04 05:58:15;;;;;;;12.40;4.87;;;;;;;;;;4996588;28;20270;-69
2023/10/04 06:00:41;;;;;;;14.60;4.60;;;;;;;;;;5014277;28;20211;-69
2023/10/04 06:03:07;;;;;;;17.23;5.03;;;;;;;;;;5013711;28;20172;-69
2023/10/04 06:05:37;;;;;;;12.80;4.80;;;;;;;;;;5005473;23;20232;-67
2023/10/04 06:08:06;;;;;;;21.97;5.13;;;;;;;;;;4976463;28;20212;-67
2023/10/04 06:10:33;;;;;;;16.57;5.23;;;;;;;;;;4993826;28;20234;-68
2023/10/04 06:12:59;;;;;;;13.23;5.10;;;;;;;;;;4993965;28;20189;-67
2023/10/04 06:15:25;;;;;;;14.53;5.20;;;;;;;;;;4993890;28;20200;-67
2023/10/04 06:17:56;;;;;;;12.63;4.77;;;;;;;;;;4976530;28;20185;-67
2023/10/04 06:20:28;;;;;;;13.47;5.20;;;;;;;;;;4993684;28;20185;-67
2023/10/04 06:22:59;;;;;;;23.17;6.47;;;;;;;;;;4993678;28;20167;-67
2023/10/04 06:25:26;;;;;;;18.90;5.47;;;;;;;;;;4976158;28;20211;-66
2023/10/04 06:27:52;;;;;;;16.70;5.43;;;;;;;;;;4993551;28;20187;-66
2023/10/04 06:30:21;;;;;;;24.93;6.07;;;;;;;;;;4975791;28;20275;-67
2023/10/04 06:32:47;;;;;;;20.43;5.17;;;;;;;;;;4975864;28;20219;-67
2023/10/04 06:35:13;;;;;;;18.23;5.20;;;;;;;;;;4975757;28;20220;-67
2023/10/04 06:37:39;;;;;;;19.17;4.80;;;;;;;;;;4976379;28;20673;-69
2023/10/04 06:40:14;;;;;;;17.50;5.03;;;;;;;;;;4976430;28;20189;-71
2023/10/04 06:42:40;;;;;;;16.87;5.10;;;;;;;;;;4993192;28;20244;-70
2023/10/04 06:45:07;;;;;;;13.60;4.27;;;;;;;;;;4975720;28;20208;-69
2023/10/04 06:47:34;;;;;;;17.80;5.13;;;;;;;;;;4993828;28;20204;-70
2023/10/04 06:50:02;;;;;;;16.60;4.53;;;;;;;;;;4978550;28;20185;-69
2023/10/04 06:52:28;;;;;;;18.67;4.50;;;;;;;;;;4979813;28;20184;-70
2023/10/04 06:54:54;;;;;;;14.57;4.50;;;;;;;;;;4997150;28;20254;-69
2023/10/04 06:57:20;;;;;;;14.63;4.13;;;;;;;;;;4997298;28;20204;-69
2023/10/04 06:59:46;;;;;;;14.33;4.40;;;;;;;;;;4997462;28;20177;-69
2023/10/04 07:02:12;;;;;;;14.50;4.43;;;;;;;;;;4980227;28;20681;-69
2023/10/04 07:04:38;;;;;;;11.63;4.60;;;;;;;;;;4996667;28;20211;-69
2023/10/04 07:07:04;;;;;;;12.00;3.70;;;;;;;;;;4997531;28;20184;-69
2023/10/04 07:09:30;;;;;;;16.40;4.37;;;;;;;;;;4996935;28;20177;-69
2023/10/04 07:11:56;;;;;;;16.97;4.90;;;;;;;;;;4996904;28;20181;-70
2023/10/04 07:14:22;;;;;;;12.43;4.20;;;;;;;;;;4996724;28;20295;-69
2023/10/04 07:16:48;;;;;;;14.13;4.90;;;;;;;;;;4979201;28;20208;-70
2023/10/04 07:19:16;;;;;;;14.90;4.43;;;;;;;;;;4996724;28;20207;-69
2023/10/04 07:21:42;;;;;;;15.90;4.20;;;;;;;;;;4979322;28;20413;-69
2023/10/04 07:24:08;;;;;;;14.13;4.20;;;;;;;;;;4996724;28;20212;-70
2023/10/04 07:26:35;;;;;;;14.07;4.60;;;;;;;;;;4996498;28;20203;-69
2023/10/04 07:29:02;;;;;;;9.73;3.83;;;;;;;;;;4978931;28;20196;-69
2023/10/04 07:31:31;;;;;;;16.43;4.93;;;;;;;;;;4996429;28;20181;-69
2023/10/04 07:33:57;;;;;;;15.80;4.80;;;;;;;;;;4978852;28;20189;-69
2023/10/04 07:36:23;;;;;;;13.13;4.70;;;;;;;;;;4996212;28;20227;-69
2023/10/04 07:38:50;;;;;;;9.87;4.40;;;;;;;;;;4996362;28;20211;-69
2023/10/04 07:41:16;;;;;;;16.40;4.80;;;;;;;;;;4996085;28;20203;-69
2023/10/04 07:43:42;;;;;;;16.53;4.10;;;;;;;;;;4996759;28;20546;-70
2023/10/04 07:46:08;;;;;;;15.07;4.53;;;;;;;;;;4996199;28;20204;-69
2023/10/04 07:48:35;;;;;;;16.13;4.57;;;;;;;;;;4996410;28;20185;-69
2023/10/04 07:51:01;;;;;;;17.63;4.50;;;;;;;;;;4996090;28;20180;-70
2023/10/04 07:53:27;;;;;;;12.33;4.77;;;;;;;;;;4996212;28;20547;-69
2023/10/04 07:55:53;;;;;;;12.83;4.57;;;;;;;;;;4995777;28;20216;-70
2023/10/04 07:58:19;;;;;;;18.53;5.03;;;;;;;;;;4978942;28;20180;-69
2023/10/04 08:00:45;;;;;;;10.50;4.43;;;;;;;;;;4996252;28;20177;-69
2023/10/04 08:03:12;;;;;;;14.33;4.43;;;;;;;;;;4980644;28;20227;-68
2023/10/04 08:05:39;;;;;;;14.33;5.10;;;;;;;;;;4998352;28;20224;-69
2023/10/04 08:08:05;;;;;;;12.40;4.97;;;;;;;;;;4980256;28;20255;-69
2023/10/04 08:10:32;;;;;;;14.80;4.70;;;;;;;;;;4996307;28;20239;-69
2023/10/04 08:13:02;;;;;;;13.43;4.30;;;;;;;;;;4995583;28;20180;-69
2023/10/04 08:15:31;;;;;;;14.80;4.43;;;;;;;;;;4995556;28;20619;-69
2023/10/04 08:17:58;;;;;;;12.87;4.33;;;;;;;;;;4995763;28;20172;-69
2023/10/04 08:20:28;;;;;;;15.03;4.90;;;;;;;;;;4978321;28;20176;-69
2023/10/04 08:22:56;;;;;;;12.10;4.17;;;;;;;;;;4978817;28;20608;-69
2023/10/04 08:25:28;;;;;;;15.50;4.63;;;;;;;;;;4977756;28;20694;-70
2023/10/04 08:27:55;;;;;;;13.67;4.60;;;;;;;;;;4995533;28;20161;-68
2023/10/04 08:30:21;;;;;;;12.53;4.40;;;;;;;;;;4995527;28;20630;-69
2023/10/04 08:32:48;;;;;;;16.10;5.00;;;;;;;;;;4995285;28;20177;-70
2023/10/04 08:35:32;;;;;;;17.47;5.03;;;;;;;;;;4995133;28;20200;-69
2023/10/04 08:37:59;;;;;;;14.30;4.37;;;;;;;;;;4995490;28;20168;-69
2023/10/04 08:40:29;;;;;;;18.03;4.60;;;;;;;;;;4995917;28;20180;-69
2023/10/04 08:42:56;;;;;;;12.37;4.27;;;;;;;;;;4995267;28;20187;-70
2023/10/04 08:45:24;;;;;;;13.43;4.73;;;;;;;;;;4995009;28;20204;-69
2023/10/04 08:47:57;;;;;;;13.73;4.13;;;;;;;;;;4977228;28;20599;-69
2023/10/04 08:50:44;;;;;;;15.73;5.07;;;;;;;;;;4977386;28;20213;-69
2023/10/04 08:53:25;;;;;;;11.90;4.63;;;;;;;;;;4994992;28;20330;-68
2023/10/04 08:55:54;;;;;;;14.10;4.37;;;;;;;;;;4994854;28;20212;-69
2023/10/04 08:58:20;;;;;;;14.70;4.63;;;;;;;;;;4977411;28;20271;-69
2023/10/04 09:00:48;;;;;;;15.33;4.77;;;;;;;;;;4994693;28;20219;-69
2023/10/04 09:03:15;;;;;;;12.90;4.17;;;;;;;;;;4994874;28;20272;-69
2023/10/04 09:05:50;;;;;;;15.50;4.50;;;;;;;;;;4977009;28;20717;-69
2023/10/04 09:08:16;;;;;;;19.00;4.73;;;;;;;;;;4994864;28;20157;-69
2023/10/04 09:10:42;;;;;;;10.63;4.20;;;;;;;;;;4994756;28;20184;-69
2023/10/04 09:13:09;;;;;;;15.80;4.80;;;;;;;;;;4994015;28;20658;-69
2023/10/04 09:15:35;;;;;;;14.47;4.13;;;;;;;;;;4994358;28;20219;-69
2023/10/04 09:18:03;;;;;;;12.87;4.20;;;;;;;;;;4977052;28;20208;-69
2023/10/04 09:20:31;;;;;;;13.53;3.80;;;;;;;;;;4976955;28;20192;-69
2023/10/04 09:22:59;;;;;;;13.07;4.13;;;;;;;;;;4994619;28;20173;-69
2023/10/04 09:25:35;;;;;;;13.80;4.33;;;;;;;;;;4977115;28;20204;-70
2023/10/04 09:28:01;;;;;;;11.70;4.37;;;;;;;;;;4977090;28;20176;-69
2023/10/04 09:30:28;;;;;;;13.93;4.20;;;;;;;;;;4994385;28;20179;-69
2023/10/04 09:32:54;;;;;;;;;;;;;;;;;;4994384;28;20183;-70
2023/10/04 09:35:20;;;;;;;12.60;4.00;;;;;;;;;;4976924;28;19910;-69
2023/10/04 09:37:47;;;;;;;11.35;4.45;;;;;;;;;;4977064;28;19958;-70
2023/10/04 09:40:15;;;;;;;12.13;4.30;;;;;;;;;;4976934;28;20611;-69
2023/10/04 09:42:56;;;;;;;18.80;4.87;;;;;;;;;;4976926;28;20151;-69
2023/10/04 09:45:26;;;;;;;13.57;4.50;;;;;;;;;;4977004;28;20215;-70
2023/10/04 09:47:53;;;;;;;12.07;4.67;;;;;;;;;;4976603;28;20173;-70
2023/10/04 09:50:23;;;;;;;14.30;3.70;;;;;;;;;;4994859;28;20177;-68
2023/10/04 09:52:53;;;;;;;13.40;4.00;;;;;;;;;;4976567;28;20234;-68
2023/10/04 09:55:25;;;;;;;13.20;4.23;;;;;;;;;;4993946;28;20207;-68
2023/10/04 09:57:55;;;;;;;13.93;3.97;;;;;;;;;;4994055;28;20678;-70
2023/10/04 10:00:22;;;;;;;13.43;3.97;;;;;;;;;;4993919;28;20180;-69
2023/10/04 10:02:52;;;;;;;8.00;3.60;;;;;;;;;;4993992;28;20235;-69
2023/10/04 10:05:31;;;;;;;11.60;3.80;;;;;;;;;;4976570;28;20271;-69
2023/10/04 10:08:04;;;;;;;11.50;3.97;;;;;;;;;;4976559;28;20180;-69
2023/10/04 10:10:33;;;;;;;12.87;4.70;;;;;;;;;;4976360;28;20539;-69
2023/10/04 10:13:00;;;;;;;14.00;5.00;;;;;;;;;;4993826;28;20207;-69
2023/10/04 10:15:26;;;;;;;8.33;3.93;;;;;;;;;;4993944;28;20192;-70
2023/10/04 10:17:53;;;;;;;10.97;3.53;;;;;;;;;;4976206;28;20184;-70
2023/10/04 10:20:19;;;;;;;13.83;4.13;;;;;;;;;;4976094;28;20184;-69
2023/10/04 10:23:08;;;;;;;14.47;4.00;;;;;;;;;;4993263;28;20647;-69
2023/10/04 10:25:35;;;;;;;13.07;4.20;;;;;;;;;;4975827;28;20690;-70
2023/10/04 10:28:03;;;;;;;12.50;4.80;;;;;;;;;;4993838;28;20204;-69
2023/10/04 10:30:31;;;;;;;13.80;4.20;;;;;;;;;;4976026;28;20189;-69
2023/10/04 10:32:58;;;;;;;12.07;4.10;;;;;;;;;;4976023;28;20184;-70
2023/10/04 10:35:40;;;;;;;12.57;4.37;;;;;;;;;;4993293;28;20200;-70
2023/10/04 10:38:24;;;;;;;16.43;4.30;;;;;;;;;;4993980;28;20265;-70
2023/10/04 10:40:50;;;;;;;14.37;3.90;;;;;;;;;;4995636;28;20210;-70
2023/10/04 10:43:16;;;;;;;9.93;3.97;;;;;;;;;;4977573;28;20251;-70
2023/10/04 10:45:42;;;;;;;12.37;4.83;;;;;;;;;;4994857;28;20208;-70
2023/10/04 10:48:11;;;;;;;6.67;3.47;;;;;;;;;;4976772;28;20189;-70
2023/10/04 10:50:39;;;;;;;11.20;4.13;;;;;;;;;;4977738;28;20180;-70
2023/10/04 10:53:05;;;;;;;10.70;3.50;;;;;;;;;;4976461;28;20704;-70
2023/10/04 10:55:34;;;;;;;9.03;3.40;;;;;;;;;;4976335;28;20255;-68
2023/10/04 10:58:00;;;;;;;7.60;3.40;;;;;;;;;;4993311;28;20207;-69
2023/10/04 11:00:31;;;;;;;15.60;4.93;;;;;;;;;;4993248;28;20622;-70
2023/10/04 11:02:57;;;;;;;12.43;4.13;;;;;;;;;;4975982;28;20179;-69
2023/10/04 11:05:25;;;;;;;11.70;4.03;;;;;;;;;;4992962;28;20216;-70
2023/10/04 11:07:52;;;;;;;9.53;3.53;;;;;;;;;;4993587;28;20200;-69
2023/10/04 11:10:20;;;;;;;10.83;3.40;;;;;;;;;;4976450;28;20180;-69
2023/10/04 11:12:51;;;;;;;11.63;4.40;;;;;;;;;;4992878;28;20268;-70
2023/10/04 11:15:23;;;;;;;8.40;4.03;;;;;;;;;;4993211;28;20568;-70
2023/10/04 11:17:50;;;;;;;9.83;4.03;;;;;;;;;;4975435;28;20602;-69
2023/10/04 11:20:21;;;;;;;8.30;3.50;;;;;;;;;;4992908;28;20176;-69
2023/10/04 11:22:49;;;;;;;10.63;3.83;;;;;;;;;;4992806;28;20259;-69
2023/10/04 11:25:15;;;;;;;9.33;3.87;;;;;;;;;;4992661;28;20204;-69
2023/10/04 11:27:43;;;;;;;7.50;3.40;;;;;;;;;;4975343;28;20180;-69
2023/10/04 11:30:10;;;;;;;12.40;4.00;;;;;;;;;;4975312;28;20230;-69
2023/10/04 11:32:40;;;;;;;13.57;3.63;;;;;;;;;;4993038;28;20203;-70
2023/10/04 11:35:09;;;;;;;10.13;3.97;;;;;;;;;;4994314;28;20636;-69
2023/10/04 11:37:44;;;;;;;11.27;4.30;;;;;;;;;;4978723;28;20606;-69
2023/10/04 11:40:11;;;;;;;13.10;4.30;;;;;;;;;;4996521;28;20164;-70
2023/10/04 11:42:37;;;;;;;9.37;3.83;;;;;;;;;;4978652;28;20640;-70
2023/10/04 11:45:26;;;;;;;13.57;4.77;;;;;;;;;;4996400;28;20201;-70
2023/10/04 11:48:01;;;;;;;8.27;4.33;;;;;;;;;;4996505;28;20164;-69
2023/10/04 11:50:47;;;;;;;12.77;4.70;;;;;;;;;;4978723;28;20180;-69
2023/10/04 11:53:13;;;;;;;11.20;5.23;;;;;;;;;;4978493;28;20247;-70
2023/10/04 11:55:40;;;;;;;11.47;4.07;;;;;;;;;;4995996;28;20238;-69
2023/10/04 11:58:06;;;;;;;8.30;4.13;;;;;;;;;;4996028;28;20681;-69
2023/10/04 12:00:32;;;;;;;12.10;4.47;;;;;;;;;;4995982;28;20335;-70
2023/10/04 12:02:59;;;;;;;6.70;4.27;;;;;;;;;;4995784;28;20187;-70
2023/10/04 12:05:25;;;;;;;11.57;3.97;;;;;;;;;;4978069;28;20220;-69
2023/10/04 12:07:51;;;;;;;12.13;4.37;;;;;;;;;;4978193;28;20192;-69
2023/10/04 12:10:18;;;;;;;8.97;4.53;;;;;;;;;;4978284;28;20533;-69
2023/10/04 12:12:44;;;;;;;8.27;4.13;;;;;;;;;;4995796;28;20172;-69
2023/10/04 12:15:10;;;;;;;9.80;4.27;;;;;;;;;;4995687;28;20196;-69
2023/10/04 12:17:37;;;;;;;9.53;4.67;;;;;;;;;;4995700;28;20677;-70
2023/10/04 12:20:07;;;;;;;8.80;4.40;;;;;;;;;;4978367;28;20738;-69
2023/10/04 12:22:36;;;;;;;10.33;4.67;;;;;;;;;;4978821;28;20173;-67
2023/10/04 12:25:04;;;;;;;13.33;4.90;;;;;;;;;;4995939;28;20235;-67
2023/10/04 12:27:30;;;;;;;11.83;5.20;;;;;;;;;;4978458;28;20191;-66
2023/10/04 12:29:57;;;;;;;9.37;4.50;;;;;;;;;;4978341;28;20185;-66
2023/10/04 12:32:23;;;;;;;8.97;4.57;;;;;;;;;;4995302;28;20199;-66
2023/10/04 12:34:49;;;;;;;11.07;4.77;;;;;;;;;;4995357;28;20714;-67
2023/10/04 12:37:15;;;;;;;12.23;5.63;;;;;;;;;;4996100;28;20239;-67
2023/10/04 12:39:43;;;;;;;9.17;4.50;;;;;;;;;;4995575;28;20180;-68
2023/10/04 12:42:09;;;;;;;14.93;4.87;;;;;;;;;;4995247;28;20172;-67
2023/10/04 12:44:37;;;;;;;11.97;4.30;;;;;;;;;;4995491;28;20303;-67
2023/10/04 12:47:04;;;;;;;10.27;4.40;;;;;;;;;;4994066;28;20635;-67
2023/10/04 12:49:30;;;;;;;8.77;4.10;;;;;;;;;;4995230;28;20631;-67
2023/10/04 12:51:56;;;;;;;11.07;4.77;;;;;;;;;;4995204;28;20230;-67
2023/10/04 12:54:24;;;;;;;10.23;4.73;;;;;;;;;;4977128;28;20347;-67
2023/10/04 12:56:51;;;;;;;8.83;4.87;;;;;;;;;;4994896;28;20215;-67
2023/10/04 12:59:19;;;;;;;7.37;4.60;;;;;;;;;;4995033;28;20197;-67
2023/10/04 13:01:45;;;;;;;10.00;4.67;;;;;;;;;;4977137;28;20179;-67
2023/10/04 13:04:11;;;;;;;10.47;5.13;;;;;;;;;;4977094;28;20283;-68
2023/10/04 13:06:38;;;;;;;11.40;4.97;;;;;;;;;;4994723;28;20617;-68
2023/10/04 13:09:05;;;;;;;9.83;5.00;;;;;;;;;;4994646;28;20176;-67
2023/10/04 13:11:31;;;;;;;12.40;4.97;;;;;;;;;;4995148;28;20172;-67
2023/10/04 13:13:57;;;;;;;11.47;5.33;;;;;;;;;;4994921;28;20211;-68
2023/10/04 13:16:23;;;;;;;13.77;5.43;;;;;;;;;;4976803;28;20251;-68
2023/10/04 13:18:49;;;;;;;10.73;5.20;;;;;;;;;;4994552;28;20181;-68
2023/10/04 13:21:18;;;;;;;12.37;5.60;;;;;;;;;;4994611;28;20203;-68
2023/10/04 13:23:44;;;;;;;9.70;5.20;;;;;;;;;;4978824;28;20184;-66
2023/10/04 13:26:10;;;;;;;13.23;5.10;;;;;;;;;;4995305;28;20283;-67
2023/10/04 13:28:37;;;;;;;12.77;6.07;;;;;;;;;;4994423;28;20212;-67
2023/10/04 13:31:04;;;;;;;9.87;4.93;;;;;;;;;;4976951;28;20222;-67
2023/10/04 13:33:30;;;;;;;12.43;5.97;;;;;;;;;;4995130;28;20191;-67
2023/10/04 13:35:56;;;;;;;16.97;6.47;;;;;;;;;;4993810;28;20209;-67
2023/10/04 13:38:23;;;;;;;11.50;5.60;;;;;;;;;;4994125;28;20185;-67
2023/10/04 13:40:49;;;;;;;10.37;5.13;;;;;;;;;;4994800;28;20208;-67
2023/10/04 13:43:16;;;;;;;11.13;5.93;;;;;;;;;;4977799;28;20280;-67
2023/10/04 13:45:45;;;;;;;9.67;5.30;;;;;;;;;;4977561;28;20205;-67
2023/10/04 13:48:11;;;;;;;16.07;5.93;;;;;;;;;;4994445;28;20179;-68
2023/10/04 13:50:38;;;;;;;11.00;6.00;;;;;;;;;;4994185;28;20196;-67
2023/10/04 13:53:10;;;;;;;11.17;5.13;;;;;;;;;;4976471;28;20212;-68
2023/10/04 13:55:37;;;;;;;12.73;5.13;;;;;;;;;;4993798;28;20204;-67
2023/10/04 13:58:03;;;;;;;15.10;5.50;;;;;;;;;;4993927;28;20264;-68
2023/10/04 14:00:36;;;;;;;8.63;4.53;;;;;;;;;;4993921;28;20173;-67
2023/10/04 14:03:01;;;;;;;11.40;5.30;;;;;;;;;;4994337;28;20172;-67
2023/10/04 14:05:28;;;;;;;11.63;5.37;;;;;;;;;;4976331;28;20298;-67
2023/10/04 14:07:55;;;;;;;10.57;5.17;;;;;;;;;;4993738;28;20215;-67
2023/10/04 14:10:24;;;;;;;13.57;5.33;;;;;;;;;;4994200;28;20549;-67
2023/10/04 14:12:55;;;;;;;18.03;10.03;;;;;;;;;;4993954;28;20177;-67
2023/10/04 14:15:22;;;;;;;13.40;7.77;;;;;;;;;;4993624;28;20193;-67
2023/10/04 14:17:49;;;;;;;11.70;5.57;;;;;;;;;;4993432;28;20204;-67
2023/10/04 14:20:16;;;;;;;12.97;6.83;;;;;;;;;;4994166;28;20173;-66
2023/10/04 14:22:43;;;;;;;11.63;5.90;;;;;;;;;;4976487;28;20259;-66
2023/10/04 14:25:10;;;;;;;9.17;5.27;;;;;;;;;;4993583;28;20193;-65
2023/10/04 14:27:36;;;;;;;11.40;5.70;;;;;;;;;;4976212;28;20242;-66
2023/10/04 14:30:03;;;;;;;14.17;6.07;;;;;;;;;;4975991;28;20580;-66
2023/10/04 14:32:30;;;;;;;14.03;5.00;;;;;;;;;;4976129;28;20191;-67
2023/10/04 14:34:56;;;;;;;13.83;5.80;;;;;;;;;;4976243;28;20311;-66
2023/10/04 14:37:22;;;;;;;14.00;5.00;;;;;;;;;;4976818;28;20758;-66